Offutt, Kentucky
Current Conditions -  °F | °C
As of 7:55 PM on Tuesday 21 Oct 2014 (Local Time) from KSJS Reporting Station
Overcast Overcast  
Wind Chill: 50°   Ceiling: 6500
Heat Index: 50°   Visibility: 10mi
Dew Point: 41°   Wind: 3mph
Humidity: 71%   Direction: 310°NW
Pressure: 30.08"   Gusts: NA
Location:  37.7517°N, 82.9074°W
Report Text: KSJS 212355Z AUTO 31003KT 10SM OVC065 10/05 A3008 RMK AO2 T01000049 10131 20098
Loading
Personal Weather Stations






























Interactive Weather Map
Tropical Storm Tracking
New forecast layout! Learn more

10-Day Weather Forecast

Advertisements
Track Severe Weather on mobile